Terminal Aerodrome Forecast
Issued by NWS

Home | Current Version | Previous Version | Text Only | Print | Product List | Glossary On
Versions: 1 2 3 4 5 6 7 8 9 10 11 12 13 14 15
086
FTAK31 PAJN 211135
TAFAJN
TAF
PAJN 211135Z 2112/2212 12018G25KT 6SM -RA BR FEW015 OVC035
     FM211800 12020G30KT 5SM -RA BR SCT015 OVC030 WS020/14040KT
     FM220400 11015KT P6SM -RA SCT015 OVC035=

USA.gov is the U.S. government's official web portal to all federal, state and local government web resources and services.